^^
Station Historical Data
Daily Summary for June 9, 2017 Units:  English    Metric   Both
« Previous Day
Next Day »
Daily Weekly Monthly Yearly Custom
  High: Low: Average:
Temperature: 80.4 °F 47.2 °F 65.4 °F
Dew Point: 55.7 °F 45.8 °F 51.5 °F
Humidity: 97% 37% 65%
Wind Speed: 6.0mph 0.0mph 1.1mph
Wind Gust: 15.0mph - -
Wind- - SW
Pressure: 29.88 in 29.74 in -
Precipitation: 0.00 in    
Historical Graphs
 
 
Tabular Data for June 9, 2017
Time Temperature Dew Point Pressure Wind Wind Speed Wind Gust Humidity Rainfall Rate (Hourly) Conditions
00:00 52.5 °F 47.2 °F 29.83 in Calm     82% 0.00 in CLR
00:15 52.0 °F 47.3 °F 29.82 in Calm     84% 0.00 in CLR
00:30 52.0 °F 47.3 °F 29.81 in Calm     84% 0.00 in CLR
00:45 51.8 °F 47.4 °F 29.81 in Calm   1.0 mph 85% 0.00 in CLR
01:00 51.7 °F 47.6 °F 29.80 in Calm     86% 0.00 in CLR
02:15 50.6 °F 47.2 °F 29.78 in Calm     88% 0.00 in CLR
02:30 50.0 °F 46.6 °F 29.78 in Calm     88% 0.00 in CLR
02:45 49.4 °F 46.6 °F 29.77 in Calm     90% 0.00 in CLR
03:00 49.4 °F 46.6 °F 29.77 in Calm     90% 0.00 in CLR
03:15 49.2 °F 46.7 °F 29.76 in Calm     91% 0.00 in CLR
03:30 49.2 °F 47.0 °F 29.75 in Calm     92% 0.00 in CLR
03:45 48.7 °F 46.5 °F 29.75 in Calm     92% 0.00 in CLR
04:00 48.2 °F 46.3 °F 29.75 in Calm     93% 0.00 in CLR
04:15 48.5 °F 46.9 °F 29.74 in Calm     94% 0.00 in CLR
04:30 47.6 °F 46.0 °F 29.74 in Calm     94% 0.00 in CLR
04:45 48.0 °F 46.7 °F 29.74 in Calm     95% 0.00 in CLR
05:00 47.3 °F 46.0 °F 29.74 in Calm     95% 0.00 in CLR
05:15 47.2 °F 45.8 °F 29.74 in Calm     95% 0.00 in CLR
05:30 48.1 °F 47.0 °F 29.74 in Calm     96% 0.00 in CLR
05:45 47.8 °F 46.8 °F 29.75 in Calm     96% 0.00 in CLR
06:00 49.0 °F 48.2 °F 29.75 in Calm     97% 0.00 in CLR
06:15 49.9 °F 49.0 °F 29.75 in Calm   2.0 mph 97% 0.00 in FEW
06:30 50.5 °F 49.4 °F 29.75 in Calm   1.0 mph 96% 0.00 in FEW
06:45 51.0 °F 49.9 °F 29.75 in Calm     96% 0.00 in FEW
07:00 52.5 °F 51.1 °F 29.75 in Calm   2.0 mph 95% 0.00 in FEW
07:15 53.8 °F 51.2 °F 29.75 in South 2.0 mph 6.0 mph 91% 0.00 in SCT
07:30 55.2 °F 50.7 °F 29.75 in South 1.0 mph 6.0 mph 85% 0.00 in SCT
07:45 56.7 °F 50.6 °F 29.75 in SSW 2.0 mph 5.0 mph 80% 0.00 in SCT
08:00 57.9 °F 50.4 °F 29.76 in SW 3.0 mph 7.0 mph 76% 0.00 in SCT
08:15 58.0 °F 49.8 °F 29.76 in SSW 1.0 mph 8.0 mph 74% 0.00 in SCT
08:30 58.2 °F 50.3 °F 29.76 in South 1.0 mph 6.0 mph 75% 0.00 in SCT
08:45 60.3 °F 51.6 °F 29.76 in SSW 2.0 mph 7.0 mph 73% 0.00 in SCT
09:00 60.8 °F 52.1 °F 29.76 in Calm   6.0 mph 73% 0.00 in SCT
09:15 60.9 °F 52.2 °F 29.76 in Calm   6.0 mph 73% 0.00 in SCT
09:30 61.8 °F 53.0 °F 29.76 in WSW 1.0 mph 6.0 mph 73% 0.00 in SCT
09:45 64.2 °F 53.4 °F 29.76 in SSW 2.0 mph 6.0 mph 68% 0.00 in SCT
10:00 65.0 °F 53.8 °F 29.76 in SSW 1.0 mph 3.0 mph 67% 0.00 in SCT
10:15 66.8 °F 55.1 °F 29.77 in NW 1.0 mph 4.0 mph 66% 0.00 in SCT
10:30 67.7 °F 55.0 °F 29.77 in NNW 1.0 mph 5.0 mph 64% 0.00 in SCT
10:45 68.2 °F 53.3 °F 29.77 in WNW 3.0 mph 6.0 mph 59% 0.00 in SCT
11:00 67.9 °F 53.5 °F 29.77 in Calm   4.0 mph 60% 0.00 in SCT
11:15 68.6 °F 55.1 °F 29.77 in Calm   5.0 mph 62% 0.00 in SCT
11:30 69.8 °F 54.8 °F 29.77 in NW 3.0 mph 7.0 mph 59% 0.00 in SCT
11:45 70.6 °F 54.6 °F 29.77 in North 2.0 mph 9.0 mph 57% 0.00 in SCT
12:00 72.5 °F 55.4 °F 29.77 in NW 2.0 mph 7.0 mph 55% 0.00 in SCT
12:15 73.3 °F 55.1 °F 29.76 in SE 1.0 mph 9.0 mph 53% 0.00 in FEW
12:30 74.6 °F 54.7 °F 29.76 in Calm   6.0 mph 50% 0.00 in FEW
12:45 74.5 °F 55.7 °F 29.76 in WNW 1.0 mph 7.0 mph 52% 0.00 in FEW
13:00 74.9 °F 53.9 °F 29.76 in WNW 2.0 mph 7.0 mph 48% 0.00 in FEW
13:15 76.5 °F 54.2 °F 29.75 in SW 2.0 mph 7.0 mph 46% 0.00 in FEW
13:30 77.1 °F 52.9 °F 29.75 in SE 3.0 mph 12.0 mph 43% 0.00 in FEW
13:45 78.2 °F 53.8 °F 29.75 in NW 2.0 mph 11.0 mph 43% 0.00 in FEW
14:00 76.8 °F 52.6 °F 29.75 in NNW 6.0 mph 13.0 mph 43% 0.00 in FEW
14:15 76.2 °F 53.9 °F 29.76 in NNW 3.0 mph 12.0 mph 46% 0.00 in SCT
14:30 76.4 °F 53.5 °F 29.75 in NNE 2.0 mph 11.0 mph 45% 0.00 in SCT
14:45 77.3 °F 53.7 °F 29.76 in NNW 3.0 mph 12.0 mph 44% 0.00 in SCT
15:00 76.7 °F 53.8 °F 29.76 in NW 1.0 mph 10.0 mph 45% 0.00 in SCT
15:15 77.1 °F 52.9 °F 29.75 in North 2.0 mph 8.0 mph 43% 0.00 in SCT
15:30 78.2 °F 53.2 °F 29.75 in NNE 1.0 mph 10.0 mph 42% 0.00 in SCT
15:45 78.3 °F 54.0 °F 29.75 in WSW 2.0 mph 10.0 mph 43% 0.00 in SCT
16:00 78.3 °F 54.0 °F 29.75 in NNW 1.0 mph 9.0 mph 43% 0.00 in SCT
16:15 78.9 °F 53.9 °F 29.75 in SE 1.0 mph 6.0 mph 42% 0.00 in SCT
16:30 79.4 °F 53.0 °F 29.75 in South 6.0 mph 13.0 mph 40% 0.00 in SCT
16:45 79.9 °F 52.7 °F 29.74 in SW 3.0 mph 14.0 mph 39% 0.00 in SCT
17:00 80.4 °F 53.2 °F 29.74 in West 1.0 mph 15.0 mph 39% 0.00 in SCT
17:15 79.8 °F 51.9 °F 29.74 in SSW 3.0 mph 10.0 mph 38% 0.00 in SCT
17:30 80.4 °F 52.5 °F 29.74 in SW 5.0 mph 12.0 mph 38% 0.00 in SCT
17:45 79.5 °F 52.4 °F 29.75 in SSW 2.0 mph 12.0 mph 39% 0.00 in SCT
18:00 80.0 °F 52.1 °F 29.75 in SW 2.0 mph 7.0 mph 38% 0.00 in SCT
18:15 80.2 °F 51.6 °F 29.75 in SSW 3.0 mph 10.0 mph 37% 0.00 in SCT
18:30 80.4 °F 51.7 °F 29.76 in Calm   13.0 mph 37% 0.00 in SCT
19:00 80.4 °F 51.7 °F 29.77 in SSW 2.0 mph 7.0 mph 37% 0.00 in SCT
19:15 79.6 °F 51.0 °F 29.77 in SW 3.0 mph 10.0 mph 37% 0.00 in FEW
19:45 78.4 °F 52.8 °F 29.79 in SSW 1.0 mph 8.0 mph 41% 0.00 in FEW
20:00 77.3 °F 52.4 °F 29.80 in WSW 1.0 mph 8.0 mph 42% 0.00 in FEW
20:15 75.9 °F 53.1 °F 29.80 in SSW 1.0 mph 6.0 mph 45% 0.00 in FEW
20:30 74.9 °F 53.3 °F 29.81 in Calm   5.0 mph 47% 0.00 in FEW
20:45 74.2 °F 53.2 °F 29.81 in Calm   4.0 mph 48% 0.00 in FEW
21:00 73.1 °F 53.3 °F 29.82 in Calm   2.0 mph 50% 0.00 in FEW
21:30 71.9 °F 53.3 °F 29.83 in Calm   2.0 mph 52% 0.00 in FEW
21:45 71.3 °F 53.3 °F 29.84 in Calm   3.0 mph 53% 0.00 in FEW
22:00 70.5 °F 53.6 °F 29.85 in Calm   1.0 mph 55% 0.00 in FEW
22:15 68.7 °F 54.2 °F 29.86 in Calm     60% 0.00 in CLR
22:30 68.0 °F 54.1 °F 29.86 in Calm   1.0 mph 61% 0.00 in CLR
22:45 68.2 °F 53.8 °F 29.87 in Calm   1.0 mph 60% 0.00 in CLR
23:00 66.4 °F 53.8 °F 29.88 in Calm     64% 0.00 in CLR
23:15 65.2 °F 54.0 °F 29.88 in Calm     67% 0.00 in CLR
23:30 64.6 °F 54.2 °F 29.88 in Calm     69% 0.00 in CLR
23:45 63.5 °F 54.3 °F 29.88 in Calm     72% 0.00 in CLR
TarryTown NY Weather
Compliments of Weather Underground - 1.5 mb